createdAt,value
2023-01-08T00:01:05.779Z,0.20
2023-01-08T00:03:34.283Z,0.31
2023-01-08T00:06:03.213Z,0.34
2023-01-08T00:08:33.205Z,0.37
2023-01-08T00:11:01.136Z,0.40
2023-01-08T00:13:29.238Z,0.42
2023-01-08T00:15:57.074Z,0.42
2023-01-08T00:18:27.128Z,0.45
2023-01-08T00:20:55.071Z,0.41
2023-01-08T00:23:23.122Z,0.40
2023-01-08T00:25:52.287Z,0.42
2023-01-08T00:28:21.161Z,0.45
2023-01-08T00:30:49.466Z,0.46
2023-01-08T00:33:17.417Z,0.47
2023-01-08T00:35:45.255Z,0.45
2023-01-08T00:38:13.200Z,0.47
2023-01-08T00:40:41.093Z,0.48
2023-01-08T00:43:10.539Z,0.49
2023-01-08T00:45:38.338Z,0.39
2023-01-08T00:48:06.773Z,0.43
2023-01-08T00:50:34.854Z,0.34
2023-01-08T00:53:03.477Z,0.54
2023-01-08T00:55:31.274Z,0.56
2023-01-08T00:57:59.318Z,0.53
2023-01-08T01:00:28.664Z,0.53
2023-01-08T01:02:56.402Z,0.60
2023-01-08T01:05:24.390Z,0.50
2023-01-08T01:07:52.124Z,0.47
2023-01-08T01:10:20.618Z,0.57
2023-01-08T01:12:48.758Z,0.62
2023-01-08T01:15:19.003Z,0.65
2023-01-08T01:17:48.206Z,0.62
2023-01-08T01:20:17.959Z,0.64
2023-01-08T01:22:45.795Z,0.65
2023-01-08T01:25:13.720Z,0.65
2023-01-08T01:27:41.790Z,0.41
2023-01-08T01:30:10.724Z,0.64
2023-01-08T01:32:38.425Z,0.61
2023-01-08T01:35:08.684Z,0.62
2023-01-08T01:37:36.467Z,0.65
2023-01-08T01:40:04.687Z,0.62
2023-01-08T01:42:41.312Z,0.65
2023-01-08T01:45:22.502Z,0.59
2023-01-08T01:47:57.092Z,0.51
2023-01-08T01:50:29.933Z,0.60
2023-01-08T01:53:03.936Z,0.62
2023-01-08T01:55:32.749Z,0.61
2023-01-08T01:58:06.340Z,0.59
2023-01-08T02:00:35.874Z,0.52
2023-01-08T02:03:06.001Z,0.50
2023-01-08T02:05:42.530Z,0.64
2023-01-08T02:08:14.089Z,0.65
2023-01-08T02:10:50.119Z,0.64
2023-01-08T02:13:23.408Z,0.63
2023-01-08T02:15:57.649Z,0.68
2023-01-08T02:18:33.704Z,0.68
2023-01-08T02:21:09.655Z,0.67
2023-01-08T02:23:47.408Z,0.72
2023-01-08T02:26:21.315Z,0.69
2023-01-08T02:28:53.724Z,0.66
2023-01-08T02:31:23.688Z,0.67
2023-01-08T02:33:51.572Z,0.68
2023-01-08T02:36:36.764Z,0.69
2023-01-08T02:39:30.937Z,0.73
2023-01-08T02:42:07.300Z,0.73
2023-01-08T02:44:51.886Z,0.76
2023-01-08T02:47:27.175Z,0.74
2023-01-08T02:50:03.652Z,0.59
2023-01-08T02:52:34.257Z,0.64
2023-01-08T02:55:04.066Z,0.76
2023-01-08T02:57:35.543Z,0.68
2023-01-08T03:00:03.613Z,0.80
2023-01-08T03:02:36.751Z,0.82
2023-01-08T03:05:13.871Z,0.84
2023-01-08T03:07:42.071Z,0.84
2023-01-08T03:10:11.108Z,0.87
2023-01-08T03:12:54.997Z,0.83
2023-01-08T03:15:28.181Z,0.89
2023-01-08T03:18:00.364Z,0.76
2023-01-08T03:20:28.542Z,0.84
2023-01-08T03:22:59.539Z,0.92
2023-01-08T03:25:29.436Z,0.90
2023-01-08T03:28:01.608Z,0.86
2023-01-08T03:30:31.384Z,1.00
2023-01-08T03:33:01.445Z,1.00
2023-01-08T03:35:32.911Z,1.03
2023-01-08T03:38:05.656Z,1.08
2023-01-08T03:40:38.146Z,1.04
2023-01-08T03:43:07.342Z,1.04
2023-01-08T03:45:38.081Z,1.07
2023-01-08T03:48:07.662Z,1.03
2023-01-08T03:50:35.545Z,1.08
2023-01-08T03:53:03.287Z,1.09
2023-01-08T03:55:31.096Z,1.12
2023-01-08T03:57:59.008Z,1.07
2023-01-08T04:00:28.257Z,1.13
2023-01-08T04:02:56.164Z,1.10
2023-01-08T04:05:24.032Z,0.95
2023-01-08T04:07:51.815Z,1.10
2023-01-08T04:10:19.677Z,1.15
2023-01-08T04:12:47.540Z,1.09
2023-01-08T04:15:15.444Z,1.13
2023-01-08T04:17:44.717Z,1.15
2023-01-08T04:20:12.908Z,1.13
2023-01-08T04:22:40.677Z,1.18
2023-01-08T04:25:09.350Z,1.04
2023-01-08T04:27:37.235Z,1.20
2023-01-08T04:30:06.021Z,1.23
2023-01-08T04:32:33.869Z,1.15
2023-01-08T04:35:03.100Z,1.25
2023-01-08T04:37:30.884Z,1.23
2023-01-08T04:39:58.841Z,1.25
2023-01-08T04:42:26.676Z,1.25
2023-01-08T04:44:54.423Z,1.29
2023-01-08T04:47:22.251Z,1.34
2023-01-08T04:49:50.126Z,1.32
2023-01-08T04:52:19.333Z,1.33
2023-01-08T04:54:47.233Z,1.24
2023-01-08T04:57:15.054Z,1.32
2023-01-08T04:59:42.894Z,1.34
2023-01-08T05:02:10.797Z,1.36
2023-01-08T05:04:38.711Z,1.31
2023-01-08T05:07:07.898Z,1.41
2023-01-08T05:09:37.086Z,1.46
2023-01-08T05:12:05.261Z,1.42
2023-01-08T05:14:33.299Z,1.45
2023-01-08T05:17:01.144Z,1.30
2023-01-08T05:19:28.882Z,1.47
2023-01-08T05:21:57.853Z,1.43
2023-01-08T05:24:25.727Z,1.39
2023-01-08T05:26:54.894Z,1.43
2023-01-08T05:29:22.976Z,1.47
2023-01-08T05:31:50.816Z,1.36
2023-01-08T05:34:18.577Z,1.50
2023-01-08T05:36:46.442Z,1.52
2023-01-08T05:39:14.343Z,1.42
2023-01-08T05:41:42.134Z,1.48
2023-01-08T05:44:12.494Z,1.51
2023-01-08T05:46:40.461Z,1.54
2023-01-08T05:49:08.382Z,1.49
2023-01-08T05:51:36.166Z,1.52
2023-01-08T05:54:04.211Z,1.49
2023-01-08T05:56:32.011Z,1.55
2023-01-08T05:58:59.706Z,1.40
2023-01-08T06:01:29.280Z,1.56
2023-01-08T06:03:58.936Z,1.44
2023-01-08T06:06:26.718Z,1.55
2023-01-08T06:08:54.747Z,1.62
2023-01-08T06:11:22.592Z,1.57
2023-01-08T06:13:50.502Z,1.60
2023-01-08T06:16:18.737Z,1.53
2023-01-08T06:18:48.066Z,1.61
2023-01-08T06:21:15.760Z,1.63
2023-01-08T06:23:43.686Z,1.63
2023-01-08T06:26:11.410Z,1.62
2023-01-08T06:28:39.200Z,1.66
2023-01-08T06:31:07.246Z,1.68
2023-01-08T06:33:35.057Z,1.64
2023-01-08T06:36:05.766Z,1.65
2023-01-08T06:38:34.606Z,1.63
2023-01-08T06:41:05.166Z,1.68
2023-01-08T06:43:33.706Z,1.68
2023-01-08T06:46:04.452Z,1.65
2023-01-08T06:48:32.293Z,1.64
2023-01-08T06:51:01.528Z,1.69
2023-01-08T06:53:31.129Z,1.65
2023-01-08T06:55:58.974Z,1.57
2023-01-08T06:58:27.724Z,1.63
2023-01-08T07:00:56.023Z,1.67
2023-01-08T07:03:23.805Z,1.66
2023-01-08T07:05:51.691Z,1.56
2023-01-08T07:08:19.995Z,1.69
2023-01-08T07:10:49.133Z,1.73
2023-01-08T07:13:16.932Z,1.70
2023-01-08T07:15:44.940Z,1.77
2023-01-08T07:18:13.619Z,1.74
2023-01-08T07:20:41.632Z,1.75
2023-01-08T07:23:12.047Z,1.77
2023-01-08T07:25:39.653Z,1.75
2023-01-08T07:28:12.683Z,1.72
2023-01-08T07:30:40.547Z,1.76
2023-01-08T07:33:08.383Z,1.80
2023-01-08T07:35:36.973Z,1.82
2023-01-08T07:38:04.881Z,1.88
2023-01-08T07:40:32.929Z,1.84
2023-01-08T07:43:01.551Z,1.82
2023-01-08T07:45:31.583Z,1.83
2023-01-08T07:48:00.135Z,1.88
2023-01-08T07:50:29.019Z,1.86
2023-01-08T07:52:59.090Z,1.92
2023-01-08T07:55:26.915Z,1.94
2023-01-08T07:57:54.964Z,1.96
2023-01-08T08:00:23.310Z,1.95
2023-01-08T08:02:52.607Z,2.03
2023-01-08T08:05:20.510Z,2.02
2023-01-08T08:07:48.256Z,2.09
2023-01-08T08:10:16.076Z,2.06
2023-01-08T08:12:45.797Z,2.04
2023-01-08T08:15:13.683Z,2.13
2023-01-08T08:17:41.423Z,2.11
2023-01-08T08:20:11.502Z,2.16
2023-01-08T08:22:39.358Z,2.14
2023-01-08T08:25:07.581Z,2.19
2023-01-08T08:27:35.490Z,2.17
2023-01-08T08:30:03.467Z,2.18
2023-01-08T08:32:31.163Z,2.16
2023-01-08T08:34:59.032Z,2.20
2023-01-08T08:37:28.217Z,2.25
2023-01-08T08:39:55.914Z,2.30
2023-01-08T08:42:23.840Z,2.31
2023-01-08T08:44:51.649Z,2.29
2023-01-08T08:47:19.369Z,2.34
2023-01-08T08:49:47.273Z,2.35
2023-01-08T08:52:15.044Z,2.27
2023-01-08T08:54:44.138Z,2.34
2023-01-08T08:57:12.906Z,2.41
2023-01-08T08:59:40.817Z,2.36
2023-01-08T09:02:08.726Z,2.42
2023-01-08T09:04:36.940Z,2.46
2023-01-08T09:07:04.765Z,2.31
2023-01-08T09:09:32.497Z,2.40
2023-01-08T09:12:02.247Z,2.48
2023-01-08T09:14:30.165Z,2.52
2023-01-08T09:16:57.869Z,2.35
2023-01-08T09:19:25.682Z,2.50
2023-01-08T09:21:53.620Z,2.52
2023-01-08T09:24:21.417Z,2.50
2023-01-08T09:26:49.159Z,2.43
2023-01-08T09:29:18.502Z,2.65
2023-01-08T09:31:46.763Z,2.61
2023-01-08T09:34:14.599Z,2.49
2023-01-08T09:36:42.715Z,2.60
2023-01-08T09:39:10.924Z,2.62
2023-01-08T09:41:43.734Z,2.61
2023-01-08T09:44:16.605Z,2.67
2023-01-08T09:46:47.839Z,2.65
2023-01-08T09:49:22.604Z,2.68
2023-01-08T09:51:50.929Z,2.67
2023-01-08T09:54:19.026Z,2.79
2023-01-08T09:56:47.414Z,2.81
2023-01-08T09:59:18.856Z,2.78
2023-01-08T10:01:48.944Z,2.65
2023-01-08T10:04:19.360Z,2.82
2023-01-08T10:06:53.049Z,2.87
2023-01-08T10:09:28.622Z,2.95
2023-01-08T10:11:59.639Z,2.84
2023-01-08T10:14:31.237Z,2.88
2023-01-08T10:17:11.366Z,2.88
2023-01-08T10:19:39.634Z,2.87
2023-01-08T10:22:14.151Z,2.95
2023-01-08T10:24:43.328Z,2.88
2023-01-08T10:27:15.449Z,3.02
2023-01-08T10:29:43.230Z,2.99
2023-01-08T10:32:16.550Z,2.95
2023-01-08T10:34:48.118Z,3.07
2023-01-08T10:37:19.356Z,2.90
2023-01-08T10:39:48.379Z,3.04
2023-01-08T10:42:19.192Z,3.02
2023-01-08T10:44:57.065Z,3.01
2023-01-08T10:47:28.154Z,2.90
2023-01-08T10:49:56.631Z,3.05
2023-01-08T10:52:31.800Z,3.09
2023-01-08T10:55:13.006Z,3.09
2023-01-08T10:57:41.534Z,3.04
2023-01-08T11:00:24.103Z,3.03
2023-01-08T11:02:53.666Z,3.01
2023-01-08T11:05:29.743Z,2.94
2023-01-08T11:08:00.241Z,3.00
2023-01-08T11:10:28.952Z,2.98
2023-01-08T11:12:58.969Z,3.03
2023-01-08T11:15:35.960Z,3.02
2023-01-08T11:18:19.890Z,3.06
2023-01-08T11:20:48.918Z,2.99
2023-01-08T11:23:19.599Z,3.01
2023-01-08T11:25:56.283Z,3.00
2023-01-08T11:28:31.715Z,2.96
2023-01-08T11:31:13.279Z,2.99
2023-01-08T11:33:43.524Z,3.02
2023-01-08T11:36:18.695Z,2.90
2023-01-08T11:38:46.652Z,3.02
2023-01-08T11:41:35.638Z,2.99
2023-01-08T11:44:16.588Z,3.00
2023-01-08T11:46:52.377Z,2.86
2023-01-08T11:49:49.077Z,3.02
2023-01-08T11:52:32.111Z,3.02
2023-01-08T11:55:16.562Z,2.98
2023-01-08T11:57:59.933Z,2.95
2023-01-08T12:00:47.264Z,2.90
2023-01-08T12:03:27.423Z,2.95
2023-01-08T12:06:06.832Z,2.97
2023-01-08T12:08:43.276Z,2.99
2023-01-08T12:11:17.773Z,3.01
2023-01-08T12:13:58.307Z,3.03
2023-01-08T12:16:38.527Z,3.03
2023-01-08T12:19:21.515Z,3.01
2023-01-08T12:22:06.920Z,2.94
2023-01-08T12:25:04.765Z,3.01
2023-01-08T12:27:56.322Z,2.95
2023-01-08T12:30:32.294Z,2.95
2023-01-08T12:33:04.359Z,3.01
2023-01-08T12:35:38.224Z,3.00
2023-01-08T12:38:12.385Z,2.90
2023-01-08T12:40:43.599Z,3.03
2023-01-08T12:43:17.120Z,2.92
2023-01-08T12:45:47.166Z,3.05
2023-01-08T12:48:18.642Z,3.02
2023-01-08T12:50:59.571Z,3.03
2023-01-08T12:53:38.192Z,2.78
2023-01-08T12:56:12.723Z,2.92
2023-01-08T12:58:55.237Z,2.96
2023-01-08T13:01:31.953Z,3.06
2023-01-08T13:04:01.174Z,3.03
2023-01-08T13:06:29.004Z,2.80
2023-01-08T13:09:01.730Z,3.05
2023-01-08T13:11:32.586Z,2.84
2023-01-08T13:14:02.756Z,3.03
2023-01-08T13:16:33.639Z,2.91
2023-01-08T13:19:02.893Z,2.99
2023-01-08T13:21:34.485Z,3.01
2023-01-08T13:24:23.116Z,3.04
2023-01-08T13:26:51.850Z,3.02
2023-01-08T13:29:37.896Z,3.06
2023-01-08T13:32:06.729Z,3.03
2023-01-08T13:34:40.307Z,3.03
2023-01-08T13:37:16.450Z,2.95
2023-01-08T13:39:52.360Z,3.04
2023-01-08T13:42:28.518Z,3.03
2023-01-08T13:45:01.008Z,3.01
2023-01-08T13:47:32.949Z,2.95
2023-01-08T13:50:04.236Z,3.09
2023-01-08T13:52:42.717Z,3.08
2023-01-08T13:55:18.636Z,3.05
2023-01-08T13:57:51.418Z,2.98
2023-01-08T14:00:24.509Z,3.04
2023-01-08T14:02:55.113Z,3.02
2023-01-08T14:05:27.603Z,3.03
2023-01-08T14:07:56.102Z,3.01
2023-01-08T14:10:26.270Z,2.96
2023-01-08T14:12:54.619Z,2.96
2023-01-08T14:15:26.105Z,2.98
2023-01-08T14:17:55.163Z,3.00
2023-01-08T14:20:34.533Z,2.95
2023-01-08T14:23:04.574Z,3.00
2023-01-08T14:25:33.855Z,2.99
2023-01-08T14:28:04.029Z,2.90
2023-01-08T14:30:32.588Z,2.99
2023-01-08T14:33:01.837Z,2.71
2023-01-08T14:35:33.851Z,2.96
2023-01-08T14:38:02.417Z,2.92
2023-01-08T14:40:34.374Z,2.96
2023-01-08T14:43:10.619Z,2.93
2023-01-08T14:45:40.878Z,2.91
2023-01-08T14:48:16.441Z,2.78
2023-01-08T14:50:46.493Z,2.77
2023-01-08T14:53:20.618Z,2.89
2023-01-08T14:55:52.432Z,2.80
2023-01-08T14:58:25.460Z,2.88
2023-01-08T15:00:57.291Z,2.82
2023-01-08T15:03:31.715Z,2.74
2023-01-08T15:05:59.643Z,2.70
2023-01-08T15:08:33.502Z,2.84
2023-01-08T15:11:05.210Z,2.73
2023-01-08T15:13:35.347Z,2.86
2023-01-08T15:16:09.723Z,2.85
2023-01-08T15:18:47.076Z,2.81
2023-01-08T15:21:19.451Z,2.78
2023-01-08T15:23:50.214Z,2.78
2023-01-08T15:26:19.773Z,2.84
2023-01-08T15:28:54.262Z,2.83
2023-01-08T15:31:29.581Z,2.72
2023-01-08T15:33:58.987Z,2.81
2023-01-08T15:36:27.269Z,2.81
2023-01-08T15:38:55.123Z,2.79
2023-01-08T15:41:42.593Z,2.70
2023-01-08T15:44:12.846Z,2.82
2023-01-08T15:46:40.566Z,2.81
2023-01-08T15:49:08.437Z,2.80
2023-01-08T15:51:45.809Z,2.76
2023-01-08T15:54:14.446Z,2.80
2023-01-08T15:56:43.687Z,2.73
2023-01-08T15:59:12.278Z,2.79
2023-01-08T16:01:40.404Z,2.76
2023-01-08T16:04:08.327Z,2.79
2023-01-08T16:06:37.071Z,2.75
2023-01-08T16:09:05.029Z,2.78
2023-01-08T16:11:32.874Z,2.77
2023-01-08T16:14:02.097Z,2.71
2023-01-08T16:16:29.912Z,2.74
2023-01-08T16:18:59.708Z,2.52
2023-01-08T16:21:27.646Z,2.71
2023-01-08T16:23:55.431Z,2.73
2023-01-08T16:26:23.274Z,2.75
2023-01-08T16:28:51.144Z,2.72
2023-01-08T16:31:20.467Z,2.73
2023-01-08T16:33:48.356Z,2.70
2023-01-08T16:36:16.200Z,2.69
2023-01-08T16:38:43.951Z,2.64
2023-01-08T16:41:11.746Z,2.70
2023-01-08T16:43:41.842Z,2.69
2023-01-08T16:46:13.698Z,2.67
2023-01-08T16:48:43.845Z,2.58
2023-01-08T16:51:12.483Z,2.69
2023-01-08T16:53:40.762Z,2.49
2023-01-08T16:56:09.529Z,2.67
2023-01-08T16:58:37.489Z,2.63
2023-01-08T17:01:09.475Z,2.69
2023-01-08T17:03:38.375Z,2.52
2023-01-08T17:06:09.468Z,2.62
2023-01-08T17:08:40.281Z,2.55
2023-01-08T17:11:09.998Z,2.56
2023-01-08T17:13:37.783Z,2.61
2023-01-08T17:16:06.288Z,2.65
2023-01-08T17:18:34.058Z,2.60
2023-01-08T17:21:01.910Z,2.57
2023-01-08T17:23:31.310Z,2.38
2023-01-08T17:26:04.070Z,2.54
2023-01-08T17:28:32.376Z,2.53
2023-01-08T17:31:03.811Z,2.45
2023-01-08T17:33:31.733Z,2.56
2023-01-08T17:35:59.947Z,2.54
2023-01-08T17:38:29.029Z,2.49
2023-01-08T17:41:01.502Z,2.48
2023-01-08T17:43:29.415Z,2.51
2023-01-08T17:45:57.264Z,2.40
2023-01-08T17:48:25.225Z,2.51
2023-01-08T17:50:52.990Z,2.51
2023-01-08T17:53:20.705Z,2.55
2023-01-08T17:55:49.279Z,2.51
2023-01-08T17:58:18.367Z,2.45
2023-01-08T18:00:46.312Z,2.36
2023-01-08T18:03:14.683Z,2.54
2023-01-08T18:05:42.536Z,2.40
2023-01-08T18:08:10.334Z,2.51
2023-01-08T18:10:39.056Z,2.36
2023-01-08T18:13:06.974Z,2.36
2023-01-08T18:15:36.164Z,2.53
2023-01-08T18:18:05.079Z,2.52
2023-01-08T18:20:32.919Z,2.42
2023-01-08T18:23:00.614Z,2.55
2023-01-08T18:25:28.629Z,2.48
2023-01-08T18:27:56.345Z,2.50
2023-01-08T18:30:24.313Z,2.48
2023-01-08T18:33:05.847Z,2.45
2023-01-08T18:35:34.049Z,2.51
2023-01-08T18:38:01.929Z,2.49
2023-01-08T18:40:29.979Z,2.47
2023-01-08T18:42:57.691Z,2.50
2023-01-08T18:45:25.575Z,2.47
2023-01-08T18:47:54.351Z,2.38
2023-01-08T18:50:23.437Z,2.50
2023-01-08T18:52:51.262Z,2.56
2023-01-08T18:55:19.361Z,2.51
2023-01-08T18:57:48.981Z,2.52
2023-01-08T19:00:17.215Z,2.50
2023-01-08T19:02:45.350Z,2.52
2023-01-08T19:05:13.109Z,2.52
2023-01-08T19:07:42.386Z,2.55
2023-01-08T19:10:11.709Z,2.53
2023-01-08T19:12:40.270Z,2.47
2023-01-08T19:15:08.925Z,2.58
2023-01-08T19:17:37.167Z,2.65
2023-01-08T19:20:05.311Z,2.51
2023-01-08T19:22:33.223Z,2.48
2023-01-08T19:25:02.428Z,2.55
2023-01-08T19:27:30.191Z,2.58
2023-01-08T19:29:58.076Z,2.60
2023-01-08T19:32:26.113Z,2.58
2023-01-08T19:34:54.383Z,2.47
2023-01-08T19:37:22.451Z,2.60
2023-01-08T19:39:50.314Z,2.61
2023-01-08T19:42:37.242Z,2.60
2023-01-08T19:45:06.004Z,2.48
2023-01-08T19:47:34.204Z,2.64
2023-01-08T19:50:01.989Z,2.62
2023-01-08T19:52:30.033Z,2.65
2023-01-08T19:54:58.992Z,2.53
2023-01-08T19:57:28.401Z,2.68
2023-01-08T19:59:56.442Z,2.74
2023-01-08T20:02:24.459Z,2.67
2023-01-08T20:04:52.602Z,2.71
2023-01-08T20:07:20.662Z,2.58
2023-01-08T20:09:48.538Z,2.64
2023-01-08T20:12:16.350Z,2.43
2023-01-08T20:14:45.729Z,2.67
2023-01-08T20:17:13.737Z,2.65
2023-01-08T20:19:41.733Z,2.73
2023-01-08T20:22:09.775Z,2.69
2023-01-08T20:24:39.093Z,2.69
2023-01-08T20:27:07.926Z,2.72
2023-01-08T20:29:35.986Z,2.73
2023-01-08T20:32:06.064Z,2.73
2023-01-08T20:34:34.129Z,2.72
2023-01-08T20:37:02.062Z,2.67
2023-01-08T20:39:29.844Z,2.73
2023-01-08T20:42:04.349Z,2.66
2023-01-08T20:44:33.758Z,2.56
2023-01-08T20:47:01.838Z,2.59
2023-01-08T20:49:31.012Z,2.73
2023-01-08T20:52:00.740Z,2.73
2023-01-08T20:54:29.466Z,2.81
2023-01-08T20:57:21.755Z,2.78
2023-01-08T20:59:49.665Z,2.76
2023-01-08T21:02:17.402Z,2.78
2023-01-08T21:04:46.659Z,2.75
2023-01-08T21:07:14.437Z,2.83
2023-01-08T21:09:44.271Z,2.78
2023-01-08T21:12:12.281Z,2.74
2023-01-08T21:14:40.219Z,2.74
2023-01-08T21:17:07.979Z,2.78
2023-01-08T21:19:35.785Z,2.78
2023-01-08T21:22:05.015Z,2.78
2023-01-08T21:24:32.754Z,2.78
2023-01-08T21:27:00.653Z,2.75
2023-01-08T21:29:29.300Z,2.71
2023-01-08T21:31:57.498Z,2.69
2023-01-08T21:34:26.194Z,2.66
2023-01-08T21:36:54.165Z,2.65
2023-01-08T21:39:24.879Z,2.62
2023-01-08T21:42:10.493Z,2.62
2023-01-08T21:44:55.563Z,2.58
2023-01-08T21:47:24.472Z,2.60
2023-01-08T21:49:52.361Z,2.57
2023-01-08T21:52:37.884Z,2.45
2023-01-08T21:55:07.814Z,2.57
2023-01-08T21:57:39.594Z,2.52
2023-01-08T22:00:08.966Z,2.52
2023-01-08T22:02:37.111Z,2.52
2023-01-08T22:05:06.431Z,2.54
2023-01-08T22:07:34.348Z,2.40
2023-01-08T22:10:02.901Z,2.51
2023-01-08T22:12:32.143Z,2.47
2023-01-08T22:15:00.626Z,2.54
2023-01-08T22:17:31.369Z,2.60
2023-01-08T22:20:01.341Z,2.35
2023-01-08T22:22:29.419Z,2.34
2023-01-08T22:24:57.149Z,2.47
2023-01-08T22:27:25.144Z,2.43
2023-01-08T22:29:54.637Z,2.49
2023-01-08T22:32:22.376Z,2.48
2023-01-08T22:34:50.628Z,2.48
2023-01-08T22:37:21.627Z,2.48
2023-01-08T22:39:49.589Z,2.40
2023-01-08T22:42:17.889Z,2.35
2023-01-08T22:44:45.853Z,2.57
2023-01-08T22:47:15.035Z,2.49
2023-01-08T22:49:42.875Z,2.48
2023-01-08T22:52:10.830Z,2.50
2023-01-08T22:54:39.271Z,2.50
2023-01-08T22:57:07.603Z,2.53
2023-01-08T22:59:35.914Z,2.44
2023-01-08T23:02:03.711Z,2.48
2023-01-08T23:04:33.103Z,2.48
2023-01-08T23:07:00.832Z,2.53
2023-01-08T23:09:28.834Z,2.42
2023-01-08T23:11:56.785Z,2.27
2023-01-08T23:14:24.521Z,2.45
2023-01-08T23:16:52.395Z,2.45
2023-01-08T23:19:20.499Z,2.22
2023-01-08T23:21:49.623Z,2.33
2023-01-08T23:24:17.410Z,2.26
2023-01-08T23:26:45.455Z,2.23
2023-01-08T23:29:13.248Z,2.39
2023-01-08T23:31:43.211Z,2.28
2023-01-08T23:34:12.042Z,2.32
2023-01-08T23:36:40.756Z,2.24
2023-01-08T23:39:11.338Z,2.29
2023-01-08T23:41:39.601Z,2.13
2023-01-08T23:44:12.837Z,2.27
2023-01-08T23:46:41.081Z,2.40
2023-01-08T23:49:10.081Z,2.14
2023-01-08T23:51:42.181Z,2.32
2023-01-08T23:54:12.266Z,2.33
2023-01-08T23:56:40.987Z,2.25
2023-01-08T23:59:09.487Z,2.27
